A80 TRACON Summary / KATL TAF
ATL TRACON Summary:
Expect VFR conditions with SCT040-060 clouds in the TRACON airspace. Surface winds will be from the north northwest at 5-8kts. No significant flight hazards expected in the TRACON airspace.

Updated:7/29/2014 12:00 PM
ATL Terminal Aerodrome Forecast:

FTUS31 KATL 291600 AAA
KATL 291559Z 2916/3018 32012G18KT P6SM SCT045
     FM300100 35007KT P6SM SKC
     FM301300 04006KT P6SM FEW030
ATL TRACON Area Remark:
NONE.
Convective Gate Forecast / Collaborative Convective Forecast Product / Vertical Wind Profile
Convective Gate Forecast
SIGMETS/ Southeast Radar & Satellite Loops (click on image to enlarge)

Southeast Radar Loop

 



USA.gov is the U.S. government's official web portal to all federal, state and local government web resources and services.